Time;durP1;ratioP1;P1;durP2;ratioP2;P2;SDS_P1;SDS_P2;PMS_P1;PMS_P2;Temp;Humidity;BMP_temperature;BMP_pressure;BME280_temperature;BME280_humidity;BME280_pressure;Samples;Min_cycle;Max_cycle;Signal;HPM_P1;HPM_P2
2022/10/26 00:02:18;;;;;;;9.73;7.95;;;16.20;99.90;;;;;;5055953;28;20151;-61
2022/10/26 00:04:44;;;;;;;9.57;7.30;;;16.10;99.90;;;;;;5055896;28;20064;-61
2022/10/26 00:07:10;;;;;;;8.13;6.53;;;16.10;99.90;;;;;;5055908;28;20018;-61
2022/10/26 00:09:35;;;;;;;6.15;5.40;;;16.20;99.90;;;;;;5056145;28;20025;-60
2022/10/26 00:12:01;;;;;;;6.72;5.95;;;16.20;99.90;;;;;;5055963;28;20044;-60
2022/10/26 00:14:27;;;;;;;8.40;7.13;;;16.20;99.90;;;;;;5055828;28;20021;-60
2022/10/26 00:16:53;;;;;;;10.90;8.05;;;16.10;99.90;;;;;;5055668;28;20131;-60
2022/10/26 00:19:19;;;;;;;7.70;6.85;;;16.00;99.90;;;;;;5055756;28;20037;-60
2022/10/26 00:21:45;;;;;;;9.95;7.32;;;16.00;99.90;;;;;;5055838;28;20032;-60
2022/10/26 00:24:11;;;;;;;8.80;6.63;;;16.00;99.90;;;;;;5055549;28;20069;-60
2022/10/26 00:26:37;;;;;;;8.90;7.15;;;15.90;99.90;;;;;;5055767;28;20022;-60
2022/10/26 00:29:03;;;;;;;9.35;7.13;;;15.90;99.90;;;;;;5055492;28;20021;-60
2022/10/26 00:31:29;;;;;;;6.97;5.95;;;15.80;99.90;;;;;;5055607;28;20487;-60
2022/10/26 00:33:55;;;;;;;6.63;5.65;;;15.70;99.90;;;;;;5055201;28;20029;-60
2022/10/26 00:36:23;;;;;;;5.93;4.63;;;15.70;99.90;;;;;;5055584;28;20391;-60
2022/10/26 00:38:53;;;;;;;5.93;4.38;;;15.70;99.90;;;;;;5055444;28;20053;-61
2022/10/26 00:41:30;;;;;;;5.65;4.18;;;15.70;99.90;;;;;;5055250;28;20055;-61
2022/10/26 00:43:56;;;;;;;5.95;4.53;;;15.70;99.90;;;;;;5055307;28;20025;-61
2022/10/26 00:46:23;;;;;;;4.95;4.00;;;15.70;99.90;;;;;;5054542;28;20170;-61
2022/10/26 00:49:04;;;;;;;4.63;3.88;;;15.60;99.90;;;;;;5054841;28;20013;-61
2022/10/26 00:51:36;;;;;;;4.95;4.07;;;15.60;99.90;;;;;;5055433;28;20152;-61
2022/10/26 00:54:05;;;;;;;4.75;4.35;;;15.70;99.90;;;;;;5055026;28;20056;-61
2022/10/26 00:56:33;;;;;;;4.32;3.83;;;15.80;99.90;;;;;;5055162;28;20021;-60
2022/10/26 00:59:03;;;;;;;3.38;2.95;;;15.80;99.90;;;;;;5055002;28;20493;-61
2022/10/26 01:01:32;;;;;;;4.03;3.63;;;15.90;99.90;;;;;;5054923;28;20515;-61
2022/10/26 01:03:59;;;;;;;4.43;3.30;;;15.90;99.90;;;;;;5054702;28;20017;-61
2022/10/26 01:06:30;;;;;;;3.65;3.35;;;16.00;99.90;;;;;;5054752;28;20021;-61
2022/10/26 01:08:55;;;;;;;3.10;2.80;;;16.00;99.90;;;;;;5054802;28;20028;-61
2022/10/26 01:11:21;;;;;;;5.25;3.70;;;16.00;99.90;;;;;;5054863;28;20434;-61
2022/10/26 01:13:49;;;;;;;4.05;2.97;;;16.10;99.90;;;;;;5054876;28;20100;-61
2022/10/26 01:16:33;;;;;;;4.07;3.22;;;16.00;99.90;;;;;;5054315;28;20475;-61
2022/10/26 01:19:10;;;;;;;2.65;2.17;;;16.00;99.90;;;;;;5054659;28;20471;-61
2022/10/26 01:21:50;;;;;;;3.10;2.70;;;15.90;99.90;;;;;;5054642;28;20463;-60
2022/10/26 01:24:37;;;;;;;2.38;1.77;;;15.90;99.90;;;;;;5054508;28;20017;-61
2022/10/26 01:27:30;;;;;;;2.30;2.10;;;15.90;99.90;;;;;;5054425;28;20033;-61
2022/10/26 01:30:17;;;;;;;3.67;2.38;;;15.90;99.90;;;;;;5054281;28;20439;-61
2022/10/26 01:32:56;;;;;;;3.53;2.45;;;15.90;99.90;;;;;;5054098;28;20050;-61
2022/10/26 01:35:24;;;;;;;4.35;2.90;;;15.80;99.90;;;;;;5054312;28;20036;-61
2022/10/26 01:38:16;;;;;;;3.40;2.88;;;15.60;99.90;;;;;;5054265;28;20021;-60
2022/10/26 01:40:53;;;;;;;5.20;3.47;;;15.50;99.90;;;;;;5053920;28;20033;-61
2022/10/26 01:43:19;;;;;;;4.07;2.97;;;15.50;99.90;;;;;;5054071;28;20052;-60
2022/10/26 01:45:47;;;;;;;3.88;2.95;;;15.50;99.90;;;;;;5053912;28;20032;-61
2022/10/26 01:48:17;;;;;;;2.90;2.30;;;15.50;99.90;;;;;;5053947;28;20100;-61
2022/10/26 01:50:46;;;;;;;5.55;3.58;;;15.50;99.90;;;;;;5053940;28;20071;-61
2022/10/26 01:53:15;;;;;;;3.55;2.60;;;15.50;99.90;;;;;;5053928;28;20029;-60
2022/10/26 01:55:47;;;;;;;2.22;2.03;;;15.50;99.90;;;;;;5054091;28;20060;-60
2022/10/26 01:58:28;;;;;;;2.83;2.42;;;15.50;99.90;;;;;;5052859;28;20021;-61
2022/10/26 02:01:05;;;;;;;3.67;2.72;;;15.50;99.90;;;;;;5053638;28;20017;-61
2022/10/26 02:04:00;;;;;;;2.95;2.20;;;15.50;99.90;;;;;;5053657;28;20111;-61
2022/10/26 02:06:41;;;;;;;2.28;1.77;;;15.60;99.90;;;;;;5051580;28;20376;-60
2022/10/26 02:09:32;;;;;;;2.13;1.75;;;15.50;99.90;;;;;;5053724;28;20021;-61
2022/10/26 02:12:00;;;;;;;2.55;1.98;;;15.50;99.90;;;;;;5053486;28;20479;-61
2022/10/26 02:14:46;;;;;;;2.65;2.45;;;15.50;99.90;;;;;;5053459;28;20025;-61
2022/10/26 02:17:20;;;;;;;2.88;2.30;;;15.50;99.90;;;;;;5053462;28;20025;-61
2022/10/26 02:19:53;;;;;;;3.45;3.10;;;15.50;99.90;;;;;;5053833;28;20029;-61
2022/10/26 02:22:28;;;;;;;4.03;3.28;;;15.40;99.90;;;;;;5053399;28;20023;-60
2022/10/26 02:24:56;;;;;;;3.63;2.70;;;15.30;99.90;;;;;;5053459;28;20024;-61
2022/10/26 02:27:26;;;;;;;3.50;2.72;;;15.20;99.90;;;;;;5053610;28;20025;-60
2022/10/26 02:29:54;;;;;;;13.02;6.18;;;15.30;99.90;;;;;;5052973;28;20049;-61
2022/10/26 02:32:22;;;;;;;13.73;8.02;;;15.40;99.90;;;;;;5053579;28;20036;-61
2022/10/26 02:34:50;;;;;;;10.00;6.90;;;15.40;99.90;;;;;;5053258;28;20033;-61
2022/10/26 02:37:19;;;;;;;10.75;7.13;;;15.40;99.90;;;;;;5053241;28;20048;-61
2022/10/26 02:39:47;;;;;;;11.98;7.82;;;15.40;99.90;;;;;;5053507;28;20025;-60
2022/10/26 02:42:14;;;;;;;9.55;6.60;;;15.40;99.90;;;;;;5053184;28;20021;-60
2022/10/26 02:44:59;;;;;;;8.32;5.82;;;15.40;99.90;;;;;;5053135;28;20021;-61
2022/10/26 02:47:26;;;;;;;7.45;5.70;;;15.40;99.90;;;;;;5053323;28;20058;-61
2022/10/26 02:49:53;;;;;;;5.68;4.65;;;15.50;99.90;;;;;;5052961;28;20174;-60
2022/10/26 02:53:07;;;;;;;4.72;4.00;;;15.50;99.90;;;;;;5053132;28;20100;-61
2022/10/26 02:55:39;;;;;;;4.32;3.50;;;15.50;99.90;;;;;;5052203;28;20566;-61
2022/10/26 02:58:12;;;;;;;4.65;3.10;;;15.50;99.90;;;;;;5053051;28;20408;-60
2022/10/26 03:00:38;;;;;;;3.10;2.77;;;15.50;99.90;;;;;;5053263;28;20021;-61
2022/10/26 03:03:03;;;;;;;3.83;2.60;;;15.50;99.90;;;;;;5053009;28;20604;-60
2022/10/26 03:05:32;;;;;;;3.13;2.55;;;15.50;99.90;;;;;;5052820;28;20074;-61
2022/10/26 03:07:59;;;;;;;2.30;2.10;;;15.50;99.90;;;;;;5052951;28;20051;-60
2022/10/26 03:10:25;;;;;;;2.30;1.88;;;15.40;99.90;;;;;;5055061;28;20031;-61
2022/10/26 03:12:51;;;;;;;3.75;1.85;;;15.40;99.90;;;;;;5056678;28;20100;-60
2022/10/26 03:15:16;;;;;;;2.80;2.30;;;15.30;99.90;;;;;;5056852;28;20029;-61
2022/10/26 03:17:42;;;;;;;2.10;1.77;;;15.30;99.90;;;;;;5056903;28;20052;-61
2022/10/26 03:20:09;;;;;;;2.00;1.80;;;15.20;99.90;;;;;;5056773;28;20356;-61
2022/10/26 03:22:35;;;;;;;1.95;1.40;;;15.20;99.90;;;;;;5056903;28;20489;-61
2022/10/26 03:25:00;;;;;;;1.77;1.67;;;15.20;99.90;;;;;;5056884;28;20107;-61
2022/10/26 03:27:26;;;;;;;1.75;1.60;;;15.10;99.90;;;;;;5056589;28;20051;-61
2022/10/26 03:29:52;;;;;;;1.58;1.35;;;15.00;99.90;;;;;;5056499;28;20111;-61
2022/10/26 03:32:18;;;;;;;4.88;2.25;;;15.10;99.90;;;;;;5056609;28;20025;-60
2022/10/26 03:34:44;;;;;;;4.32;2.92;;;15.10;99.90;;;;;;5056850;28;20475;-60
2022/10/26 03:37:10;;;;;;;3.78;2.72;;;14.90;99.90;;;;;;5056480;28;20025;-60
2022/10/26 03:39:35;;;;;;;3.53;2.83;;;14.80;99.90;;;;;;5056509;28;20033;-61
2022/10/26 03:42:01;;;;;;;2.58;2.10;;;14.80;99.90;;;;;;5056504;28;20111;-61
2022/10/26 03:44:27;;;;;;;3.03;2.28;;;14.70;99.90;;;;;;5056354;28;20384;-61
2022/10/26 03:46:52;;;;;;;2.50;1.92;;;14.70;99.90;;;;;;5056503;28;20142;-61
2022/10/26 03:49:18;;;;;;;4.05;2.75;;;14.70;99.90;;;;;;5056289;28;20024;-61
2022/10/26 03:51:44;;;;;;;2.75;2.50;;;14.70;99.90;;;;;;5056257;28;20027;-61
2022/10/26 03:54:09;;;;;;;3.53;2.53;;;14.70;99.90;;;;;;5056276;28;20028;-61
2022/10/26 03:56:35;;;;;;;2.78;2.35;;;14.70;99.90;;;;;;5055987;28;20025;-61
2022/10/26 03:59:01;;;;;;;2.85;2.05;;;14.70;99.90;;;;;;5056197;28;20033;-61
2022/10/26 04:01:26;;;;;;;3.38;2.60;;;14.70;99.90;;;;;;5056378;28;20433;-61
2022/10/26 04:03:52;;;;;;;5.70;4.22;;;14.70;99.90;;;;;;5056103;28;20099;-61
2022/10/26 04:06:17;;;;;;;5.32;4.28;;;14.60;99.90;;;;;;5056064;28;20025;-61
2022/10/26 04:08:43;;;;;;;3.83;3.40;;;14.50;99.90;;;;;;5055889;28;20053;-61
2022/10/26 04:11:09;;;;;;;3.20;2.90;;;14.40;99.90;;;;;;5055807;28;20025;-61
2022/10/26 04:13:34;;;;;;;3.55;2.90;;;14.40;99.90;;;;;;5055939;28;20021;-61
2022/10/26 04:16:00;;;;;;;4.35;3.33;;;14.40;99.90;;;;;;5056044;28;20021;-61
2022/10/26 04:18:26;;;;;;;5.30;4.80;;;14.40;99.90;;;;;;5055713;28;20498;-61
2022/10/26 04:20:51;;;;;;;4.72;4.22;;;14.40;99.90;;;;;;5055114;28;20029;-61
2022/10/26 04:23:18;;;;;;;5.72;5.18;;;14.30;99.90;;;;;;5055182;28;20100;-61
2022/10/26 04:25:44;;;;;;;4.90;4.03;;;14.30;99.90;;;;;;5055517;28;20428;-61
2022/10/26 04:28:11;;;;;;;5.63;4.65;;;14.20;99.90;;;;;;5055890;28;20032;-61
2022/10/26 04:30:37;;;;;;;4.75;4.13;;;14.20;99.90;;;;;;5055478;28;20040;-61
2022/10/26 04:33:04;;;;;;;4.05;3.30;;;14.20;99.90;;;;;;5055889;28;20036;-61
2022/10/26 04:35:30;;;;;;;4.30;3.90;;;14.20;99.90;;;;;;5055489;28;20028;-60
2022/10/26 04:38:04;;;;;;;4.78;4.28;;;14.20;99.90;;;;;;5055466;28;20049;-60
2022/10/26 04:40:31;;;;;;;4.38;3.90;;;14.30;99.90;;;;;;5055426;28;20025;-60
2022/10/26 04:42:57;;;;;;;9.23;7.70;;;14.20;99.90;;;;;;5055327;28;20357;-61
2022/10/26 04:45:23;;;;;;;5.85;5.25;;;14.10;99.90;;;;;;5055158;28;20114;-60
2022/10/26 04:47:59;;;;;;;5.07;4.47;;;14.10;99.90;;;;;;5055141;28;20044;-60
2022/10/26 04:50:26;;;;;;;4.75;4.28;;;14.00;99.90;;;;;;5055220;28;20025;-60
2022/10/26 04:52:52;;;;;;;4.80;4.32;;;14.00;99.90;;;;;;5055268;28;20040;-61
2022/10/26 04:55:18;;;;;;;4.30;3.60;;;13.90;99.90;;;;;;5054857;28;20029;-61
2022/10/26 04:57:44;;;;;;;4.15;3.75;;;13.90;99.90;;;;;;5054771;28;20454;-61
2022/10/26 05:00:10;;;;;;;5.13;3.40;;;13.90;99.90;;;;;;5053972;28;20021;-61
2022/10/26 05:02:36;;;;;;;7.22;5.55;;;13.80;99.90;;;;;;5055058;28;20027;-61
2022/10/26 05:05:02;;;;;;;23.10;19.90;;;13.70;99.90;;;;;;5054856;28;20029;-61
2022/10/26 05:07:27;;;;;;;21.42;19.17;;;13.70;99.90;;;;;;5054420;28;20017;-61
2022/10/26 05:09:53;;;;;;;12.00;10.77;;;13.60;99.90;;;;;;5054495;28;20020;-62
2022/10/26 05:12:19;;;;;;;8.40;7.60;;;13.60;99.90;;;;;;5054446;28;20082;-61
2022/10/26 05:14:44;;;;;;;7.70;7.00;;;13.60;99.90;;;;;;5054540;28;20021;-61
2022/10/26 05:17:10;;;;;;;7.28;6.57;;;13.70;99.90;;;;;;5054517;28;20032;-61
2022/10/26 05:19:36;;;;;;;7.95;6.70;;;13.70;99.90;;;;;;5054547;28;20021;-61
2022/10/26 05:22:01;;;;;;;7.95;6.97;;;13.70;99.90;;;;;;5054135;28;20046;-62
2022/10/26 05:24:27;;;;;;;9.40;7.95;;;13.80;99.90;;;;;;5053454;28;20103;-61
2022/10/26 05:26:53;;;;;;;9.27;8.00;;;13.80;99.90;;;;;;5054721;28;20179;-60
2022/10/26 05:29:18;;;;;;;9.45;7.65;;;13.80;99.90;;;;;;5054396;28;20045;-62
2022/10/26 05:31:44;;;;;;;10.40;8.35;;;13.80;99.90;;;;;;5052960;28;20025;-61
2022/10/26 05:34:09;;;;;;;17.33;12.18;;;13.80;99.90;;;;;;5052476;28;20486;-63
2022/10/26 05:36:36;;;;;;;20.58;13.98;;;13.90;99.90;;;;;;5053318;28;20450;-61
2022/10/26 05:39:02;;;;;;;18.95;14.77;;;13.80;99.90;;;;;;5053030;28;20016;-61
2022/10/26 05:41:28;;;;;;;19.98;15.35;;;13.80;99.90;;;;;;5054071;28;20422;-61
2022/10/26 05:43:53;;;;;;;17.65;13.93;;;13.70;99.90;;;;;;5053860;28;20021;-62
2022/10/26 05:46:19;;;;;;;14.43;11.75;;;13.70;99.90;;;;;;5052492;28;20369;-61
2022/10/26 05:48:45;;;;;;;15.82;12.00;;;13.70;99.90;;;;;;5052513;28;20029;-61
2022/10/26 05:51:36;;;;;;;22.25;17.23;;;13.70;99.90;;;;;;5052870;28;20476;-61
2022/10/26 05:54:02;;;;;;;17.83;14.90;;;13.80;99.90;;;;;;5053176;28;20029;-61
2022/10/26 05:56:37;;;;;;;16.60;14.55;;;13.60;99.90;;;;;;5053585;28;20055;-61
2022/10/26 05:59:10;;;;;;;15.90;12.63;;;13.60;99.90;;;;;;5053511;28;20044;-62
2022/10/26 06:01:50;;;;;;;11.90;10.65;;;13.70;99.90;;;;;;5048237;28;20179;-63
2022/10/26 06:04:16;;;;;;;15.38;12.40;;;13.80;99.90;;;;;;5044942;28;20032;-60
2022/10/26 06:06:45;;;;;;;13.00;11.23;;;13.80;99.90;;;;;;5051415;28;20387;-61
2022/10/26 06:09:13;;;;;;;11.98;9.98;;;13.80;99.90;;;;;;5050405;28;20033;-61
2022/10/26 06:11:47;;;;;;;10.32;9.23;;;13.80;99.90;;;;;;5052074;28;20486;-62
2022/10/26 06:14:13;;;;;;;11.40;9.85;;;13.90;99.90;;;;;;5050436;28;20029;-62
2022/10/26 06:17:06;;;;;;;11.30;9.55;;;14.00;99.90;;;;;;5052501;28;20383;-62
2022/10/26 06:19:45;;;;;;;10.60;8.95;;;14.20;99.90;;;;;;5049497;28;20100;-62
2022/10/26 06:22:47;;;;;;;12.55;11.00;;;14.20;99.90;;;;;;5047093;28;20491;-63
2022/10/26 06:25:22;;;;;;;12.25;10.23;;;14.30;99.90;;;;;;5041642;28;20017;-62
2022/10/26 06:28:34;;;;;;;14.32;12.77;;;14.30;99.90;;;;;;5037963;28;20037;-63
2022/10/26 06:31:00;;;;;;;17.00;14.57;;;14.30;99.90;;;;;;5049110;28;20084;-62
2022/10/26 06:33:26;;;;;;;27.17;21.80;;;14.30;99.90;;;;;;5046795;28;20440;-63
2022/10/26 06:36:21;;;;;;;21.42;19.13;;;14.20;99.90;;;;;;5048930;28;20029;-62
2022/10/26 06:39:14;;;;;;;19.70;16.88;;;14.20;99.90;;;;;;5046997;28;20505;-63
2022/10/26 06:41:40;;;;;;;14.65;13.15;;;14.40;99.90;;;;;;5049083;28;20047;-66
2022/10/26 06:44:09;;;;;;;13.43;10.85;;;14.40;99.90;;;;;;5050149;28;20029;-63
2022/10/26 06:46:41;;;;;;;11.48;10.38;;;14.60;99.90;;;;;;5049524;28;20021;-63
2022/10/26 06:49:26;;;;;;;9.50;8.50;;;14.80;99.90;;;;;;5050442;28;20051;-63
2022/10/26 06:51:58;;;;;;;21.60;18.17;;;15.00;99.90;;;;;;5048569;28;20032;-63
2022/10/26 06:54:48;;;;;;;19.08;15.90;;;15.10;99.90;;;;;;5038701;28;20053;-65
2022/10/26 06:57:16;;;;;;;17.20;14.68;;;15.10;99.90;;;;;;5035535;28;20036;-63
2022/10/26 06:59:53;;;;;;;14.38;11.90;;;16.60;99.90;;;;;;5047090;28;20049;-63
2022/10/26 07:02:19;;;;;;;16.50;12.52;;;19.00;99.90;;;;;;5043093;28;20060;-64
2022/10/26 07:04:46;;;;;;;22.63;20.17;;;20.90;83.00;;;;;;5048833;28;20132;-64
2022/10/26 07:07:16;;;;;;;20.38;17.48;;;21.60;71.10;;;;;;5046677;28;20037;-63
2022/10/26 07:09:42;;;;;;;17.25;15.50;;;22.60;69.80;;;;;;5049783;28;20029;-64
2022/10/26 07:12:07;;;;;;;13.85;12.45;;;24.10;64.80;;;;;;5050151;28;20532;-63
2022/10/26 07:14:33;;;;;;;11.82;10.73;;;25.30;59.10;;;;;;5049369;28;20132;-63
2022/10/26 07:16:59;;;;;;;10.13;9.23;;;25.80;55.80;;;;;;5047909;28;20071;-64
2022/10/26 07:19:25;;;;;;;9.20;8.35;;;26.20;54.30;;;;;;5047889;28;20017;-63
2022/10/26 07:21:52;;;;;;;9.02;7.32;;;26.90;52.50;;;;;;5049274;28;20021;-65
2022/10/26 07:24:18;;;;;;;8.65;7.80;;;27.40;50.20;;;;;;5049669;28;20079;-63
2022/10/26 07:26:44;;;;;;;6.85;6.15;;;27.80;50.40;;;;;;5049542;28;20025;-65
2022/10/26 07:29:09;;;;;;;6.53;5.80;;;28.10;49.70;;;;;;5048205;28;20104;-63
2022/10/26 07:31:35;;;;;;;5.75;5.25;;;28.50;49.30;;;;;;5049710;28;20087;-64
2022/10/26 07:34:01;;;;;;;6.45;5.60;;;28.50;47.80;;;;;;5050916;28;20021;-63
2022/10/26 07:36:28;;;;;;;6.47;5.88;;;28.70;47.70;;;;;;5050452;28;20033;-64
2022/10/26 07:38:54;;;;;;;6.80;6.13;;;28.90;46.80;;;;;;5050742;28;20548;-67
2022/10/26 07:41:20;;;;;;;6.03;5.53;;;28.60;46.50;;;;;;5050664;28;20017;-64
2022/10/26 07:43:47;;;;;;;5.93;5.43;;;28.50;46.70;;;;;;5051361;28;20044;-65
2022/10/26 07:46:13;;;;;;;67.05;58.78;;;28.20;47.10;;;;;;5051332;28;20060;-66
2022/10/26 07:48:41;;;;;;;16.77;15.02;;;27.80;46.70;;;;;;5050552;28;20568;-62
2022/10/26 07:51:06;;;;;;;16.60;14.05;;;27.30;48.20;;;;;;5049777;28;20601;-64
2022/10/26 07:53:33;;;;;;;12.40;11.10;;;27.00;47.90;;;;;;5045559;28;20023;-63
2022/10/26 07:55:59;;;;;;;11.77;10.15;;;27.00;49.10;;;;;;5049681;28;20036;-64
2022/10/26 07:58:26;;;;;;;17.83;15.73;;;27.00;49.40;;;;;;5054007;28;20379;-63
2022/10/26 08:00:52;;;;;;;10.38;9.48;;;27.70;47.80;;;;;;5052893;28;20448;-64
2022/10/26 08:03:19;;;;;;;10.48;9.20;;;28.40;47.60;;;;;;5053156;28;20111;-64
2022/10/26 08:05:46;;;;;;;9.52;8.52;;;28.90;46.60;;;;;;5053104;28;20091;-64
2022/10/26 08:08:13;;;;;;;10.30;8.25;;;28.70;46.70;;;;;;5053483;28;20040;-63
2022/10/26 08:10:46;;;;;;;8.57;7.78;;;28.70;46.60;;;;;;5052237;28;20428;-63
2022/10/26 08:13:12;;;;;;;8.88;7.97;;;28.40;47.20;;;;;;5052994;28;20387;-64
2022/10/26 08:15:38;;;;;;;8.98;7.55;;;28.40;47.00;;;;;;5043343;28;20119;-62
2022/10/26 08:18:04;;;;;;;9.57;7.18;;;28.30;47.00;;;;;;5043294;28;20476;-63
2022/10/26 08:20:30;;;;;;;7.55;6.75;;;27.90;48.20;;;;;;5050259;28;20071;-63
2022/10/26 08:22:57;;;;;;;6.97;6.18;;;27.30;48.20;;;;;;5051429;28;20037;-62
2022/10/26 08:25:22;;;;;;;7.78;6.95;;;26.60;49.70;;;;;;5050202;28;20368;-62
2022/10/26 08:27:48;;;;;;;8.80;7.22;;;26.10;50.40;;;;;;5049311;28;20014;-61
2022/10/26 08:30:14;;;;;;;7.00;6.30;;;25.50;51.50;;;;;;5039733;28;20659;-61
2022/10/26 08:32:41;;;;;;;6.43;5.82;;;25.20;52.50;;;;;;5037909;28;20030;-63
2022/10/26 08:35:07;;;;;;;6.32;5.72;;;24.80;53.30;;;;;;5040257;28;20384;-62
2022/10/26 08:37:33;;;;;;;6.50;5.90;;;24.50;54.10;;;;;;5047246;28;21396;-61
2022/10/26 08:39:59;;;;;;;7.10;6.10;;;24.10;55.60;;;;;;5046717;28;20032;-61
2022/10/26 08:42:29;;;;;;;5.93;5.32;;;24.00;55.50;;;;;;5043175;28;20374;-62
2022/10/26 08:45:00;;;;;;;6.13;5.53;;;23.80;55.60;;;;;;5042260;28;20083;-61
2022/10/26 08:47:54;;;;;;;6.55;5.43;;;23.40;57.00;;;;;;5041362;28;20071;-60
2022/10/26 08:51:06;;;;;;;6.20;5.60;;;23.00;59.60;;;;;;5048379;28;20128;-65
2022/10/26 08:53:46;;;;;;;6.60;5.88;;;23.00;59.50;;;;;;5054056;28;20041;-65
2022/10/26 08:56:43;;;;;;;5.85;5.32;;;23.20;61.70;;;;;;5042835;28;20029;-65
2022/10/26 08:59:33;;;;;;;9.20;7.78;;;23.40;60.20;;;;;;5048527;28;20040;-63
2022/10/26 09:02:01;;;;;;;12.43;9.38;;;23.00;59.60;;;;;;5047997;28;20279;-64
2022/10/26 09:04:28;;;;;;;9.40;8.50;;;22.70;61.30;;;;;;5048210;28;20419;-63
2022/10/26 09:07:18;;;;;;;11.07;9.82;;;22.50;63.10;;;;;;5047208;28;20758;-63
2022/10/26 09:09:43;;;;;;;10.45;9.35;;;22.40;64.20;;;;;;5043632;28;20121;-63
2022/10/26 09:12:13;;;;;;;10.00;8.82;;;22.30;65.30;;;;;;5045864;28;20119;-65
2022/10/26 09:14:55;;;;;;;10.52;9.40;;;22.50;65.20;;;;;;5045451;28;20064;-64
2022/10/26 09:17:31;;;;;;;12.55;9.73;;;22.90;64.10;;;;;;5048837;28;20036;-63
2022/10/26 09:20:25;;;;;;;10.00;8.30;;;22.90;64.60;;;;;;5050482;28;20032;-61
2022/10/26 09:23:10;;;;;;;8.65;7.75;;;23.00;65.00;;;;;;5045430;28;20048;-66
2022/10/26 09:25:40;;;;;;;7.40;6.53;;;23.70;62.00;;;;;;5048795;28;20033;-63
2022/10/26 09:28:16;;;;;;;7.05;6.32;;;24.00;62.10;;;;;;5046287;28;20032;-64
2022/10/26 09:30:44;;;;;;;6.22;5.63;;;24.50;60.20;;;;;;5049266;28;20087;-63
2022/10/26 09:33:15;;;;;;;6.70;5.63;;;25.00;59.40;;;;;;5036750;28;20029;-64
2022/10/26 09:36:08;;;;;;;5.68;5.18;;;25.30;58.90;;;;;;5041576;28;20048;-63
2022/10/26 09:38:46;;;;;;;6.00;5.40;;;25.50;59.50;;;;;;5046182;28;20044;-63
2022/10/26 09:41:38;;;;;;;5.78;5.28;;;25.80;57.40;;;;;;5047324;28;20505;-64
2022/10/26 09:44:38;;;;;;;5.93;5.43;;;26.10;61.20;;;;;;5045954;28;20021;-64
2022/10/26 09:47:29;;;;;;;5.80;5.20;;;26.50;56.10;;;;;;5032648;28;20499;-64
2022/10/26 09:50:01;;;;;;;6.53;4.95;;;26.80;55.90;;;;;;5045876;28;20385;-64
2022/10/26 09:52:26;;;;;;;5.80;5.20;;;26.90;60.20;;;;;;5045380;28;20434;-64
2022/10/26 09:54:52;;;;;;;5.13;4.72;;;27.10;54.60;;;;;;5040519;28;20025;-64
2022/10/26 09:57:19;;;;;;;6.25;5.18;;;27.40;54.00;;;;;;5040970;28;20109;-64
2022/10/26 09:59:50;;;;;;;5.38;4.88;;;27.60;54.70;;;;;;5032019;28;20029;-65
2022/10/26 10:02:35;;;;;;;5.30;4.90;;;27.90;53.70;;;;;;5036752;28;20032;-64
2022/10/26 10:05:05;;;;;;;5.78;5.28;;;28.10;52.80;;;;;;5041879;28;20021;-66
2022/10/26 10:07:33;;;;;;;5.20;4.80;;;28.20;54.70;;;;;;5037472;28;20509;-66
2022/10/26 10:10:19;;;;;;;5.60;5.10;;;28.20;53.70;;;;;;5031143;28;20033;-65
2022/10/26 10:12:46;;;;;;;5.43;4.90;;;28.30;51.40;;;;;;5045583;28;20021;-64
2022/10/26 10:15:23;;;;;;;5.35;4.85;;;28.50;51.70;;;;;;5042062;28;20437;-61
2022/10/26 10:17:51;;;;;;;5.25;4.75;;;28.80;50.90;;;;;;5051932;28;20029;-64
2022/10/26 10:20:25;;;;;;;6.38;5.38;;;28.90;51.20;;;;;;5039903;28;20052;-64
2022/10/26 10:23:02;;;;;;;5.10;4.70;;;28.80;52.40;;;;;;5052772;28;20206;-63
2022/10/26 10:25:38;;;;;;;5.55;4.97;;;28.90;50.80;;;;;;5052569;28;20460;-62
2022/10/26 10:28:25;;;;;;;5.60;4.43;;;29.00;49.70;;;;;;5050468;28;20024;-67
2022/10/26 10:31:05;;;;;;;5.25;4.75;;;29.20;52.40;;;;;;5039844;28;20096;-65
2022/10/26 10:33:39;;;;;;;5.03;4.63;;;29.40;50.40;;;;;;5044620;28;20450;-62
2022/10/26 10:36:15;;;;;;;6.47;5.45;;;29.50;49.80;;;;;;5048713;28;20060;-62
2022/10/26 10:38:43;;;;;;;5.22;4.82;;;29.50;50.30;;;;;;5046283;28;20423;-63
2022/10/26 10:41:19;;;;;;;6.38;4.95;;;29.50;49.40;;;;;;5049097;28;20063;-62
2022/10/26 10:43:53;;;;;;;5.80;4.88;;;29.80;49.30;;;;;;5048848;28;20049;-61
2022/10/26 10:46:27;;;;;;;4.10;3.80;;;29.80;48.20;;;;;;5048400;28;20040;-61
2022/10/26 10:49:03;;;;;;;5.30;4.50;;;29.90;49.50;;;;;;5037903;28;20017;-63
2022/10/26 10:51:40;;;;;;;3.90;3.60;;;30.00;47.60;;;;;;5047985;28;20123;-65
2022/10/26 10:54:16;;;;;;;4.43;3.65;;;30.10;48.30;;;;;;5047226;28;20487;-61
2022/10/26 10:57:25;;;;;;;4.70;4.30;;;30.20;49.90;;;;;;5047269;28;20064;-63
2022/10/26 11:00:02;;;;;;;5.28;4.78;;;30.30;50.60;;;;;;5049028;28;20025;-61
2022/10/26 11:02:46;;;;;;;4.30;4.00;;;30.40;47.80;;;;;;5049368;28;20017;-63
2022/10/26 11:05:40;;;;;;;4.45;4.05;;;30.40;50.10;;;;;;5049090;28;20112;-62
2022/10/26 11:08:22;;;;;;;4.40;3.90;;;30.60;48.10;;;;;;5049201;28;20028;-63
2022/10/26 11:11:06;;;;;;;4.05;3.70;;;30.50;50.30;;;;;;5045620;28;20503;-63
2022/10/26 11:13:52;;;;;;;;;;;30.40;47.40;;;;;;5050114;28;20177;-61
2022/10/26 11:16:35;;;;;;;5.25;4.38;;;30.50;49.50;;;;;;5044809;28;19972;-61
2022/10/26 11:19:22;;;;;;;5.07;4.30;;;30.40;46.40;;;;;;5039839;28;20430;-60
2022/10/26 11:21:53;;;;;;;4.18;3.78;;;30.10;48.10;;;;;;5041562;28;20095;-65
2022/10/26 11:24:48;;;;;;;3.83;3.53;;;30.30;50.00;;;;;;5047394;28;20021;-63
2022/10/26 11:27:23;;;;;;;3.95;3.65;;;30.60;50.20;;;;;;5062841;28;20051;-62
2022/10/26 11:30:06;;;;;;;3.95;3.50;;;30.60;47.70;;;;;;5066359;28;20574;-65
2022/10/26 11:32:46;;;;;;;4.35;4.05;;;30.60;49.60;;;;;;5054219;28;20341;-61
2022/10/26 11:35:44;;;;;;;4.43;3.85;;;30.70;46.20;;;;;;5052184;28;20029;-62
2022/10/26 11:38:30;;;;;;;4.10;3.80;;;30.60;45.90;;;;;;5052139;28;20436;-65
2022/10/26 11:41:06;;;;;;;5.30;4.35;;;30.80;48.60;;;;;;5053895;28;20083;-62
2022/10/26 11:43:48;;;;;;;3.80;3.40;;;30.90;45.30;;;;;;5054668;28;20548;-61
2022/10/26 11:46:23;;;;;;;3.72;3.38;;;30.70;45.20;;;;;;5052771;28;20149;-63
2022/10/26 11:49:01;;;;;;;5.07;2.75;;;30.70;46.20;;;;;;5053616;28;20029;-64
2022/10/26 11:51:32;;;;;;;3.25;2.70;;;30.70;46.00;;;;;;5035441;28;20357;-64
2022/10/26 11:54:07;;;;;;;4.93;4.13;;;30.60;44.60;;;;;;5042644;28;20372;-66
2022/10/26 11:56:47;;;;;;;4.10;3.70;;;30.40;44.60;;;;;;5052291;28;20061;-63
2022/10/26 11:59:21;;;;;;;3.55;3.13;;;30.20;47.30;;;;;;5052228;28;20083;-62
2022/10/26 12:02:04;;;;;;;3.30;3.00;;;30.50;46.30;;;;;;5047573;28;20499;-61
2022/10/26 12:04:32;;;;;;;;;;;30.70;45.10;;;;;;5045012;28;20024;-62
2022/10/26 12:07:02;;;;;;;3.40;2.95;;;31.00;45.90;;;;;;5048500;28;20027;-63
2022/10/26 12:09:33;;;;;;;3.30;2.72;;;31.20;43.70;;;;;;5049096;28;20025;-63
2022/10/26 12:12:29;;;;;;;3.85;2.90;;;31.40;44.50;;;;;;5049473;28;20040;-60
2022/10/26 12:15:31;;;;;;;2.72;2.40;;;31.50;43.80;;;;;;5049904;28;20021;-61
2022/10/26 12:18:08;;;;;;;3.42;2.67;;;31.60;43.40;;;;;;5045316;28;20033;-61
2022/10/26 12:21:03;;;;;;;3.78;3.25;;;31.70;44.30;;;;;;5046980;28;20332;-61
2022/10/26 12:23:33;;;;;;;4.55;2.70;;;31.60;43.80;;;;;;5050202;28;20036;-60
2022/10/26 12:26:27;;;;;;;4.07;3.60;;;31.50;44.10;;;;;;5049898;28;20678;-61
2022/10/26 12:29:01;;;;;;;5.45;3.60;;;31.50;44.10;;;;;;5050780;28;20026;-60
2022/10/26 12:31:36;;;;;;;4.50;3.15;;;31.50;44.50;;;;;;5051320;28;20037;-60
2022/10/26 12:34:03;;;;;;;4.50;3.22;;;31.40;44.10;;;;;;5051863;28;20427;-61
2022/10/26 12:36:50;;;;;;;3.55;3.25;;;31.30;46.00;;;;;;5051933;28;20029;-61
2022/10/26 12:39:42;;;;;;;4.15;3.38;;;31.40;45.60;;;;;;5051680;28;20025;-61
2022/10/26 12:42:07;;;;;;;4.50;3.33;;;31.20;46.10;;;;;;5051802;28;20087;-61
2022/10/26 12:45:00;;;;;;;4.68;2.90;;;31.30;46.00;;;;;;5053419;28;20033;-60
2022/10/26 12:47:29;;;;;;;;;;;31.50;44.50;;;;;;5054830;28;20033;-60
2022/10/26 12:50:05;;;;;;;4.38;2.80;;;31.60;42.10;;;;;;5055146;28;19927;-60
2022/10/26 12:52:52;;;;;;;3.50;2.63;;;31.80;44.40;;;;;;5055020;28;20030;-60
2022/10/26 12:55:27;;;;;;;2.60;2.40;;;31.80;42.80;;;;;;5054612;28;20059;-60
2022/10/26 12:58:07;;;;;;;3.60;2.40;;;31.70;42.20;;;;;;5054924;28;20032;-60
2022/10/26 13:00:40;;;;;;;3.47;2.45;;;31.60;41.90;;;;;;5054202;28;20094;-61
2022/10/26 13:03:11;;;;;;;1.98;1.88;;;31.60;42.40;;;;;;5054050;28;20023;-61
2022/10/26 13:06:16;;;;;;;4.88;2.40;;;31.70;43.80;;;;;;5054538;28;20036;-60
2022/10/26 13:08:54;;;;;;;3.28;2.05;;;31.70;40.10;;;;;;5052310;28;20029;-61
2022/10/26 13:11:37;;;;;;;3.42;1.85;;;31.50;41.60;;;;;;5042060;28;20021;-61
2022/10/26 13:14:15;;;;;;;2.75;1.77;;;31.30;43.00;;;;;;5033087;28;20047;-60